| Record Date MM/DD/YYYY | Record Julian Date NNN day of the year | Air Temperature Max (Degrees Fahrenheit F) | Time Max Air Temperature HH:MM:SS This is the time of max air temperature standard time. | Air Temperature Min (Degrees Fahrenheit F) | Time Min Air Temperature HH:MM:SS This is the time of min air temperature standard time. | Air Temperature Observed (Degrees Fahrenheit F) This is an instantaneous reading for air temperature at 7:00:00 standard time. | Relative Humidity Max (Percent) | Time Max Relative Humidity HH:MM:SS This is the time of max relative humidity standard time. | Relative Humidity Min (Percent) | Time Min Relative Humidity HH:MM:SS This is the time of min relative humidity standard time. | Relative Humidity Observed (Percent) This is an instantaneous reading at 7:00:00 standard time. | Precipitation (Inches n.nn) total rain fall that occurred for the day. | Pan Evaporation (Inches n.nn) total evaporation that occured for the day. | Wind Run (Miles) Wind travel for the day. | Wind Speed (Miles Per Hour) Resultant / Average speed for the day. | Wind Direction (Degrees) Resultant Direction for the day | Solar Radiation (Langley's) that occurred for the day. | Soil Temperature Max at 2 inch depth (Degrees Fahrenheit F) that occurred during the day. | Time Max Soil temperature at 2 inches HH:MM:SS This is the time of max 2 inch soil temperature standard time. | Soil Temperature Min at 2 inch depth (Degrees Fahrenheit F) that occurred during the day. | Time Min Soil temperature at 2 inches HH:MM:SS This is the time of min 2 inch soil temperature standard time. | Soil Temperature Observed at 2 inch depth (Degrees Fahrenheit F) This is an instantaneous reading 2 inch soil temperature at 7:00:00 standard time. | Soil Temperature Max at 4 inch depth (Degrees Fahrenheit F) that occurred during the day. | Time Max Soil temperature at 4 inches HH:MM:SS This is the time of max 4 inch soil temperature standard time. | Soil Temperature Min at 4 inch depth (Degrees Fahrenheit F) that occurred during the day. | Time Min Soil temperature at 4 inches HH:MM:SS This is the time of min 4 inch soil temperature standard time. | Soil Temperature Observed at 4 inch depth (Degrees Fahrenheit F) This is an instantaneous reading 4 inch soil temperature at 7:00:00 standard time. | DD50 Degree Days 50 Fahrenheit. | Adjusted DD50 Degree Days 50 Fahrenheit adjusted for latitude. | DD60 Degree Days 60 Fahrenheit. |
|---|---|---|---|---|---|---|---|---|---|---|---|---|---|---|---|---|---|---|---|---|---|---|---|---|---|---|---|---|---|---|
| 04/02/2026 | 92 | 84 | 15:27:05 | 69 | 5:45:02 | 71 | 92 | 5:49:03 | 60 | 15:28:02 | 89 | 0 | 309 | 12.9 | 178 | 265 | 80 | 15:54:01 | 70 | 5:53:04 | 71 | 77 | 16:40:01 | 71 | 6:51:05 | 71 | 26.5 | 26.95 | 16.5 | |
| 04/03/2026 | 93 | 89 | 12:42:04 | 69 | 2:18:00 | 70 | 92 | 5:50:02 | 50 | 12:43:04 | 91 | 0 | 240 | 10.0 | 181 | 460 | 88 | 13:39:01 | 71 | 3:12:05 | 71 | 82 | 15:13:00 | 71 | 7:22:02 | 71 | 29 | 26.98 | 19 | |
| 04/04/2026 | 94 | 77 | 13:23:00 | 58 | 22:50:03 | 71 | 99 | 21:54:01 | 79 | 13:43:05 | 90 | 0.59 | 199 | 8.3 | 219 | 141 | 77 | 13:35:04 | 64 | 23:58:05 | 73 | 76 | 0:01:04 | 68 | 23:59:05 | 73 | 17.5 | 18.51 | 7.5 | |
| 04/05/2026 | 95 | 64 | 15:20:00 | 51 | 6:11:02 | 52 | 89 | 0:25:00 | 44 | 16:59:03 | 78 | 0 | 289 | 12.1 | 13 | 582 | 75 | 14:38:02 | 56 | 6:22:03 | 57 | 71 | 15:57:03 | 61 | 7:23:01 | 61 | 7.5 | 8.55 | 0 | |
| 04/06/2026 | 96 | 72 | 15:14:02 | 46 | 5:43:04 | 51 | 92 | 6:30:05 | 27 | 15:41:00 | 88 | 0 | 139 | 5.8 | 24 | 563 | 80 | 14:53:05 | 53 | 6:00:05 | 54 | 74 | 16:17:03 | 58 | 6:50:04 | 58 | 9 | 10.08 | 0 | |
| 04/07/2026 | 97 | 77 | 14:46:02 | 47 | 5:22:00 | 54 | 93 | 3:18:04 | 32 | 16:38:02 | 78 | 0 | 159 | 6.6 | 50 | 554 | 84 | 13:53:02 | 54 | 6:06:01 | 55 | 76 | 15:31:04 | 58 | 6:58:01 | 58 | 12 | 13.11 | 2 | |
| 04/08/2026 | 98 | 82 | 13:38:01 | 51 | 5:48:03 | 58 | 86 | 5:54:00 | 25 | 15:00:01 | 69 | 0 | 162 | 6.8 | 119 | 580 | 85 | 14:42:03 | 59 | 6:05:02 | 59 | 78 | 16:05:01 | 62 | 7:06:00 | 62 | 16.5 | 17.64 | 6.5 | |
| 04/09/2026 | 99 | 82 | 15:16:05 | 54 | 4:47:04 | 60 | 77 | 4:53:01 | 36 | 14:57:00 | 70 | 0 | 131 | 5.5 | 135 | 584 | 88 | 14:30:01 | 60 | 6:04:00 | 61 | 80 | 16:05:04 | 63 | 6:45:01 | 63 | 18 | 19.18 | 8 | |
| 04/10/2026 | 100 | 85 | 14:37:02 | 56 | 5:56:01 | 62 | 88 | 6:04:05 | 37 | 17:04:00 | 78 | 0 | 107 | 4.5 | 158 | 603 | 91 | 14:39:02 | 63 | 6:03:01 | 64 | 83 | 16:00:01 | 66 | 7:04:03 | 66 | 20.5 | 21.71 | 10.5 | |
| 04/11/2026 | 101 | 87 | 15:06:00 | 58 | 5:35:01 | 64 | 90 | 6:11:01 | 36 | 15:55:00 | 81 | 0 | 104 | 4.3 | 180 | 554 | 91 | 15:05:03 | 66 | 6:14:04 | 66 | 83 | 16:09:04 | 68 | 6:48:00 | 68 | 22.5 | 23.74 | 12.5 | |
| 04/12/2026 | 102 | 87 | 13:55:00 | 61 | 5:04:02 | 68 | 88 | 6:11:01 | 35 | 12:59:05 | 79 | 0 | 277 | 11.6 | 185 | 502 | 86 | 14:02:00 | 67 | 6:04:00 | 68 | 80 | 15:00:02 | 70 | 6:54:03 | 70 | 24 | 25.27 | 14 | |
| 04/13/2026 | 103 | 85 | 12:30:01 | 69 | 5:34:04 | 73 | 83 | 5:56:00 | 56 | 11:49:03 | 77 | 0 | 259 | 10.8 | 183 | 424 | 86 | 12:38:02 | 72 | 6:34:00 | 72 | 81 | 16:41:01 | 73 | 7:01:02 | 73 | 27 | 27.3 | 17 | |
| 04/14/2026 | 104 | 88 | 14:20:02 | 67 | 5:32:03 | 70 | 89 | 5:44:03 | 48 | 16:24:05 | 85 | 0 | 234 | 9.7 | 193 | 555 | 90 | 14:24:00 | 70 | 6:08:00 | 71 | 84 | 16:00:05 | 72 | 7:00:03 | 72 | 27.5 | 27.33 | 17.5 | |
| 04/15/2026 | 105 | 88 | 14:20:03 | 66 | 5:03:00 | 70 | 89 | 5:07:05 | 39 | 14:21:01 | 81 | 0 | 249 | 10.4 | 196 | 574 | 90 | 14:23:05 | 71 | 6:01:00 | 72 | 84 | 15:38:03 | 73 | 6:55:02 | 73 | 27 | 27.36 | 17 | |
| 04/16/2026 | 106 | 89 | 14:57:01 | 67 | 5:41:01 | 72 | 90 | 6:09:05 | 45 | 15:00:00 | 81 | 0 | 178 | 7.4 | 198 | 516 | 92 | 14:27:01 | 72 | 6:07:01 | 73 | 85 | 15:44:05 | 74 | 7:06:05 | 74 | 28 | 27.39 | 18 | |
| 04/17/2026 | 107 | 90 | 14:24:05 | 66 | 5:24:04 | 72 | 91 | 5:36:00 | 41 | 14:07:04 | 81 | 0 | 246 | 10.2 | 190 | 561 | 91 | 14:33:05 | 72 | 6:11:04 | 72 | 85 | 15:31:04 | 74 | 7:04:00 | 74 | 28 | 27.42 | 18 | |
| 04/18/2026 | 108 | 77 | 8:55:03 | 51 | 21:07:05 | 70 | 96 | 13:24:00 | 73 | 8:56:03 | 86 | 0.16 | 226 | 9.4 | 279 | 163 | 79 | 14:10:03 | 62 | 23:58:05 | 74 | 78 | 0:00:04 | 67 | 23:59:04 | 75 | 14 | 15.45 | 4 | |
| 04/19/2026 | 109 | 73 | 14:34:01 | 48 | 5:33:00 | 50 | 96 | 1:31:03 | 26 | 14:34:03 | 90 | 0 | 111 | 4.6 | 358 | 596 | 85 | 14:28:01 | 57 | 5:53:04 | 58 | 78 | 15:35:05 | 62 | 7:06:04 | 63 | 10.5 | 11.98 | 0.5 | |
| 04/20/2026 | 110 | 79 | 16:45:01 | 44 | 5:34:00 | 55 | 98 | 5:58:05 | 23 | 16:49:02 | 88 | 0 | 72 | 3.0 | 221 | 588 | 86 | 15:01:03 | 57 | 5:50:00 | 59 | 79 | 15:40:02 | 62 | 6:37:02 | 62 | 11.5 | 13.01 | 1.5 | |
| 04/21/2026 | 111 | 82 | 14:13:03 | 47 | 5:06:02 | 58 | 93 | 6:02:03 | 24 | 16:24:02 | 79 | 0 | 125 | 5.2 | 203 | 421 | 80 | 12:03:00 | 60 | 5:47:00 | 61 | 75 | 16:23:00 | 64 | 6:45:04 | 64 | 14.5 | 16.03 | 4.5 | |
| 04/22/2026 | 112 | 84 | 14:05:04 | 57 | 1:48:02 | 64 | 82 | 5:55:00 | 29 | 15:07:04 | 74 | 0 | 129 | 5.4 | 184 | 533 | 87 | 14:22:02 | 65 | 1:59:04 | 66 | 80 | 15:30:00 | 67 | 6:19:04 | 67 | 20.5 | 22.06 | 10.5 | |
| 04/23/2026 | 113 | 88 | 14:40:05 | 65 | 2:37:00 | 68 | 86 | 6:40:03 | 36 | 13:22:00 | 86 | 0 | 244 | 10.2 | 175 | 561 | 89 | 14:44:02 | 69 | 2:50:00 | 70 | 82 | 15:19:03 | 71 | 6:55:04 | 71 | 26.5 | 27.59 | 16.5 | |
| 04/24/2026 | 114 | 79 | 10:23:01 | 61 | 13:16:02 | 69 | 99 | 23:59:01 | 64 | 0:00:03 | 88 | 1.2 | 240 | 10.0 | 162 | 203 | 80 | 11:32:00 | 66 | 23:40:03 | 72 | 77 | 12:01:02 | 68 | 23:54:01 | 73 | 20 | 21.61 | 10 | |
| 04/25/2026 | 115 | 79 | 15:52:00 | 61 | 5:17:02 | 63 | 100 | 6:13:05 | 64 | 16:50:01 | 100 | 0.19 | 71 | 3.0 | 103 | 542 | 88 | 14:01:01 | 64 | 5:41:00 | 66 | 81 | 15:19:03 | 66 | 6:17:00 | 66 | 20 | 21.64 | 10 | |
| 04/26/2026 | 116 | 84 | 14:34:01 | 67 | 6:00:03 | 70 | 99 | 5:15:04 | 62 | 13:11:03 | 93 | 0.22 | 128 | 5.3 | 151 | 523 | 88 | 13:33:03 | 69 | 6:03:02 | 70 | 82 | 14:58:01 | 70 | 6:43:00 | 71 | 25.5 | 27.17 | 15.5 | |
| 04/27/2026 | 117 | 83 | 14:01:03 | 72 | 3:09:01 | 73 | 97 | 4:14:03 | 74 | 23:55:00 | 94 | 0 | 273 | 11.4 | 183 | 332 | 84 | 13:28:00 | 72 | 4:35:03 | 72 | 80 | 15:07:04 | 73 | 6:55:02 | 73 | 27.5 | 27.69 | 17.5 | |
| 04/28/2026 | 118 | 81 | 12:14:03 | 69 | 21:16:05 | 74 | 98 | 20:55:01 | 72 | 0:07:01 | 94 | 0.22 | 189 | 7.9 | 191 | 195 | 82 | 12:25:00 | 71 | 23:59:03 | 73 | 78 | 13:14:03 | 73 | 23:59:01 | 73 | 25 | 26.72 | 15 | |
| 04/29/2026 | 119 | 71 | 7:20:00 | 63 | 0:00:00 | 71 | 100 | 6:28:02 | 81 | 13:30:01 | 98 | 0 | 171 | 7.1 | 7 | 201 | 75 | 11:27:01 | 66 | 23:59:04 | 72 | 73 | 12:29:00 | 68 | 23:57:02 | 72 | 17 | 18.74 | 7 | |
| 04/30/2026 | 120 | 68 | 12:40:00 | 58 | 23:58:01 | 60 | 94 | 0:35:01 | 57 | 12:54:04 | 78 | 0.02 | 210 | 8.8 | 30 | 383 | 78 | 12:49:02 | 62 | 6:15:00 | 63 | 73 | 13:54:04 | 66 | 6:58:00 | 66 | 13 | 14.77 | 3 | |
| 05/01/2026 | 121 | 65 | 16:13:00 | 56 | 5:01:03 | 57 | 87 | 6:16:03 | 54 | 16:46:05 | 81 | 0 | 151 | 6.3 | 27 | 190 | 69 | 15:01:04 | 61 | 5:36:03 | 61 | 68 | 16:48:02 | 63 | 7:22:05 | 64 | 10.5 | 12.29 | 0.5 | |
| Average | 80.63 | 59.13 | 64.67 | 91.77 | 47.63 | 84.17 | 0.09 | 187.4 | 448.3 | 84.13 | 64.7 | 66.53 | 78.77 | 67.4 | 68.23 | 19.88 | 20.84 | 10 | ||||||||||||
| Total | 2.6 | 596.5 | 625.27 | 300 |